Time;durP1;ratioP1;P1;durP2;ratioP2;P2;SDS_P1;SDS_P2;PMS_P1;PMS_P2;Temp;Humidity;BMP_temperature;BMP_pressure;BME280_temperature;BME280_humidity;BME280_pressure;Samples;Min_cycle;Max_cycle;Signal;HPM_P1;HPM_P2
2023/09/13 00:02:04;;;;;;;0.25;0.10;;;;;;;18.84;95.30;100648.63;4996129;28;20087;-68
2023/09/13 00:04:29;;;;;;;0.38;0.10;;;;;;;18.79;95.71;100658.94;4992293;28;20145;-68
2023/09/13 00:06:55;;;;;;;0.75;0.10;;;;;;;18.75;95.93;100655.06;4991871;28;20092;-68
2023/09/13 00:09:20;;;;;;;0.73;0.00;;;;;;;18.77;95.97;100660.16;4989325;28;20476;-68
2023/09/13 00:11:46;;;;;;;1.75;0.03;;;;;;;18.76;95.91;100651.41;4990676;28;20483;-68
2023/09/13 00:14:12;;;;;;;0.20;0.03;;;;;;;18.81;95.62;100649.00;4991881;28;20042;-68
2023/09/13 00:16:37;;;;;;;0.52;0.10;;;;;;;18.86;95.06;100654.53;4991262;28;20069;-68
2023/09/13 00:19:04;;;;;;;0.10;0.10;;;;;;;18.96;95.98;100655.97;4989729;28;20396;-68
2023/09/13 00:21:30;;;;;;;0.45;0.03;;;;;;;19.00;95.95;100649.31;4991579;28;20088;-68
2023/09/13 00:23:56;;;;;;;0.32;0.10;;;;;;;19.02;96.49;100647.28;4990027;28;20197;-68
2023/09/13 00:26:21;;;;;;;0.30;0.05;;;;;;;19.03;97.00;100646.28;4990408;28;20712;-68
2023/09/13 00:28:47;;;;;;;0.30;0.10;;;;;;;19.04;96.84;100645.25;4990588;28;20035;-68
2023/09/13 00:31:12;;;;;;;1.45;0.10;;;;;;;19.01;97.77;100648.28;4992491;28;20069;-68
2023/09/13 00:33:38;;;;;;;0.10;0.00;;;;;;;18.98;98.13;100648.69;4987226;28;20484;-68
2023/09/13 00:36:04;;;;;;;0.17;0.08;;;;;;;18.87;98.75;100648.25;4990384;28;20032;-68
2023/09/13 00:38:29;;;;;;;0.52;0.25;;;;;;;18.87;99.16;100642.97;4988584;28;20105;-68
2023/09/13 00:40:55;;;;;;;0.70;0.20;;;;;;;18.87;98.73;100648.25;4985679;28;20077;-68
2023/09/13 00:43:21;;;;;;;0.20;0.10;;;;;;;18.87;97.61;100642.97;4993842;28;20127;-68
2023/09/13 00:45:48;;;;;;;0.35;0.10;;;;;;;18.90;97.36;100653.09;4990776;28;20492;-68
2023/09/13 00:48:15;;;;;;;0.95;0.22;;;;;;;18.96;96.95;100645.41;4989476;28;20057;-68
2023/09/13 00:50:41;;;;;;;0.20;0.10;;;;;;;19.02;95.99;100649.94;4990034;28;20034;-68
2023/09/13 00:53:08;;;;;;;0.52;0.20;;;;;;;19.07;95.89;100643.06;4988766;28;20041;-68
2023/09/13 00:55:34;;;;;;;0.03;0.00;;;;;;;19.09;96.33;100634.94;4990489;28;20057;-68
2023/09/13 00:58:00;;;;;;;0.25;0.20;;;;;;;19.13;95.88;100636.19;4989270;28;20128;-68
2023/09/13 01:00:28;;;;;;;0.75;0.05;;;;;;;19.15;95.55;100639.44;4990536;28;20464;-68
2023/09/13 01:02:54;;;;;;;0.10;0.00;;;;;;;19.18;95.05;100637.22;4990334;28;20247;-68
2023/09/13 01:05:20;;;;;;;0.20;0.05;;;;;;;19.24;95.58;100643.53;4992226;28;20045;-68
2023/09/13 01:07:48;;;;;;;0.47;0.00;;;;;;;19.25;95.05;100631.16;4989787;28;20042;-68
2023/09/13 01:10:13;;;;;;;0.13;0.00;;;;;;;19.29;95.81;100641.13;4986675;28;20042;-68
2023/09/13 01:12:39;;;;;;;0.30;0.10;;;;;;;19.30;95.79;100634.84;4986399;28;20030;-68
2023/09/13 01:15:06;;;;;;;0.32;0.13;;;;;;;19.28;95.73;100633.41;4990571;28;20048;-68
2023/09/13 01:17:52;;;;;;;0.10;0.00;;;;;;;19.28;96.15;100633.41;4989890;28;20022;-68
2023/09/13 01:20:45;;;;;;;0.10;0.00;;;;;;;19.32;96.44;100634.66;4988603;28;20145;-68
2023/09/13 01:23:34;;;;;;;0.20;0.10;;;;;;;19.36;95.96;100641.97;4988194;28;20064;-68
2023/09/13 01:26:21;;;;;;;0.40;0.10;;;;;;;19.40;95.98;100640.53;4988547;28;20034;-68
2023/09/13 01:28:50;;;;;;;1.52;0.08;;;;;;;19.34;95.84;100628.16;4987486;28;20088;-68
2023/09/13 01:31:17;;;;;;;0.00;0.00;;;;;;;19.32;95.13;100627.53;4990277;28;20049;-68
2023/09/13 01:33:44;;;;;;;0.25;0.10;;;;;;;19.30;95.97;100629.56;4986545;28;20038;-69
2023/09/13 01:36:10;;;;;;;1.33;0.10;;;;;;;19.30;96.45;100624.28;4990337;28;20045;-69
2023/09/13 01:38:36;;;;;;;0.20;0.00;;;;;;;19.32;96.08;100634.66;4984812;28;20033;-69
2023/09/13 01:41:17;;;;;;;0.20;0.08;;;;;;;19.30;95.21;100629.56;4987512;28;20026;-69
2023/09/13 01:43:44;;;;;;;0.00;0.00;;;;;;;19.33;94.89;100615.94;4985313;28;20387;-69
2023/09/13 01:46:12;;;;;;;0.40;0.20;;;;;;;19.38;95.13;100620.63;4987892;28;20066;-69
2023/09/13 01:48:39;;;;;;;0.50;0.10;;;;;;;19.33;95.49;100610.66;4986792;28;20030;-69
2023/09/13 01:51:05;;;;;;;0.75;0.10;;;;;;;19.32;96.09;100618.78;4986637;28;20041;-69
2023/09/13 01:53:31;;;;;;;0.15;0.03;;;;;;;19.33;96.12;100615.13;4987613;28;20109;-69
2023/09/13 01:55:56;;;;;;;0.05;0.00;;;;;;;19.32;96.58;100613.50;4989943;28;20551;-69
2023/09/13 01:58:22;;;;;;;0.45;0.10;;;;;;;19.29;97.01;100609.44;4985703;28;20037;-69
2023/09/13 02:00:47;;;;;;;0.38;0.20;;;;;;;19.28;97.67;100604.34;4990121;28;20030;-69
2023/09/13 02:03:13;;;;;;;0.35;0.10;;;;;;;19.25;97.78;100605.56;4987908;28;20034;-69
2023/09/13 02:05:39;;;;;;;0.63;0.30;;;;;;;19.23;98.35;100612.88;4989350;28;20058;-69
2023/09/13 02:08:04;;;;;;;0.20;0.10;;;;;;;19.21;98.47;100597.22;4988600;28;20119;-69
2023/09/13 02:10:30;;;;;;;0.17;0.10;;;;;;;19.20;99.06;100602.69;4988322;28;20034;-69
2023/09/13 02:12:57;;;;;;;0.75;0.20;;;;;;;19.15;97.85;100599.81;4987684;28;20038;-69
2023/09/13 02:15:22;;;;;;;0.10;0.00;;;;;;;19.16;98.40;100593.53;4985068;28;20038;-69
2023/09/13 02:17:48;;;;;;;0.30;0.10;;;;;;;19.14;98.44;100591.09;4987904;28;20392;-69
2023/09/13 02:20:13;;;;;;;0.43;0.10;;;;;;;19.14;98.61;100587.63;4989100;28;20484;-69
2023/09/13 02:22:38;;;;;;;0.13;0.00;;;;;;;19.13;98.51;100594.75;4988504;28;20089;-69
2023/09/13 02:25:05;;;;;;;0.20;0.10;;;;;;;19.15;99.05;100607.75;4987834;28;20105;-69
2023/09/13 02:27:32;;;;;;;0.10;0.00;;;;;;;19.16;99.22;100598.81;4986715;28;20399;-69
2023/09/13 02:29:58;;;;;;;0.13;0.00;;;;;;;19.17;99.67;100600.44;4989332;28;20037;-69
2023/09/13 02:32:23;;;;;;;0.63;0.10;;;;;;;19.18;100.00;100604.72;4988247;28;20026;-69
2023/09/13 02:34:49;;;;;;;0.20;0.10;;;;;;;19.18;100.00;100610.00;4989486;28;20104;-69
2023/09/13 02:37:14;;;;;;;0.55;0.00;;;;;;;19.18;100.00;100610.00;4988031;28;20046;-69
2023/09/13 02:39:41;;;;;;;0.25;0.00;;;;;;;19.19;99.58;100617.72;4987619;28;20555;-69
2023/09/13 02:42:07;;;;;;;0.38;0.10;;;;;;;19.21;99.72;100609.59;4986283;28;20027;-69
2023/09/13 02:44:34;;;;;;;0.20;0.17;;;;;;;19.16;99.22;100609.38;4987764;28;20038;-68
2023/09/13 02:47:00;;;;;;;0.17;0.00;;;;;;;19.11;99.24;100603.88;4987600;28;20042;-68
2023/09/13 02:49:26;;;;;;;0.25;0.08;;;;;;;19.10;99.47;100605.69;4987688;28;20496;-68
2023/09/13 02:51:52;;;;;;;0.30;0.10;;;;;;;19.16;99.64;100602.28;4990101;28;20153;-68
2023/09/13 02:54:18;;;;;;;0.20;0.10;;;;;;;19.17;99.85;100603.09;4986545;28;20503;-68
2023/09/13 02:56:45;;;;;;;0.30;0.10;;;;;;;19.16;100.00;100607.56;4984633;28;20046;-68
2023/09/13 02:59:11;;;;;;;0.20;0.15;;;;;;;19.13;100.00;100607.94;4991105;28;20062;-68
2023/09/13 03:01:36;;;;;;;0.30;0.00;;;;;;;19.12;100.00;100608.13;4985843;28;20447;-69
2023/09/13 03:04:02;;;;;;;0.43;0.10;;;;;;;19.11;100.00;100607.31;4986911;28;20180;-69
2023/09/13 03:06:29;;;;;;;0.77;0.15;;;;;;;19.13;98.88;100609.75;4985851;28;20034;-69
2023/09/13 03:08:55;;;;;;;0.25;0.10;;;;;;;19.20;97.71;100600.88;4993466;28;20365;-68
2023/09/13 03:11:20;;;;;;;1.25;0.20;;;;;;;19.27;98.35;100602.72;4991263;28;20062;-68
2023/09/13 03:13:46;;;;;;;0.13;0.10;;;;;;;19.27;98.85;100595.59;4993216;28;20030;-68
2023/09/13 03:16:15;;;;;;;0.47;0.20;;;;;;;19.25;99.10;100594.19;4989323;28;20284;-69
2023/09/13 03:18:41;;;;;;;0.90;0.15;;;;;;;19.21;99.15;100589.28;4992701;28;20137;-68
2023/09/13 03:21:08;;;;;;;0.55;0.10;;;;;;;19.20;99.18;100597.41;4991872;28;20043;-68
2023/09/13 03:23:36;;;;;;;0.98;0.10;;;;;;;19.18;98.68;100594.97;4991516;28;20117;-68
2023/09/13 03:26:01;;;;;;;0.10;0.00;;;;;;;19.19;99.05;100593.94;4991434;28;20061;-68
2023/09/13 03:28:27;;;;;;;0.40;0.10;;;;;;;19.20;98.18;100594.75;4988874;28;20066;-68
2023/09/13 03:30:52;;;;;;;0.98;0.30;;;;;;;19.28;97.67;100599.06;4988133;28;20067;-68
2023/09/13 03:33:18;;;;;;;0.25;0.00;;;;;;;19.35;97.46;100595.44;4992016;28;20037;-68
2023/09/13 03:35:43;;;;;;;0.43;0.10;;;;;;;19.40;97.33;100595.63;4992940;28;20483;-68
2023/09/13 03:38:09;;;;;;;0.25;0.10;;;;;;;19.43;96.64;100589.94;4991377;28;20061;-68
2023/09/13 03:40:34;;;;;;;0.32;0.10;;;;;;;19.45;96.64;100595.84;4987549;28;20053;-68
2023/09/13 03:43:00;;;;;;;0.38;0.00;;;;;;;19.47;96.67;100590.38;4989243;28;20053;-68
2023/09/13 03:45:25;;;;;;;0.32;0.10;;;;;;;19.48;96.62;100598.09;4990893;28;20057;-68
2023/09/13 03:47:50;;;;;;;1.60;0.10;;;;;;;19.48;96.36;100592.81;4992510;28;20030;-68
2023/09/13 03:50:16;;;;;;;0.80;0.10;;;;;;;19.49;95.99;100598.91;4990468;28;20047;-68
2023/09/13 03:52:41;;;;;;;0.45;0.10;;;;;;;19.53;95.34;100598.34;4992331;28;20034;-65
2023/09/13 03:55:07;;;;;;;0.45;0.20;;;;;;;19.54;95.36;100602.63;4994198;28;20038;-65
2023/09/13 03:57:32;;;;;;;1.30;0.10;;;;;;;19.55;95.44;100590.22;4987188;28;20030;-65
2023/09/13 03:59:58;;;;;;;0.77;0.20;;;;;;;19.55;95.87;100596.31;4991699;28;20515;-65
2023/09/13 04:02:24;;;;;;;0.32;0.10;;;;;;;19.55;95.55;100598.97;4990655;28;20034;-65
2023/09/13 04:04:49;;;;;;;1.17;0.10;;;;;;;19.53;96.00;100601.00;4992347;28;20048;-65
2023/09/13 04:07:15;;;;;;;0.00;0.00;;;;;;;19.52;96.16;100595.91;4993952;28;20049;-65
2023/09/13 04:09:40;;;;;;;0.80;0.10;;;;;;;19.50;96.92;100589.97;4986025;28;20033;-65
2023/09/13 04:12:05;;;;;;;0.30;0.05;;;;;;;19.48;96.54;100600.72;4987019;28;20069;-65
2023/09/13 04:14:31;;;;;;;0.30;0.00;;;;;;;19.51;96.95;100607.47;4989435;28;20049;-65
2023/09/13 04:16:56;;;;;;;0.00;0.00;;;;;;;19.51;97.63;100600.38;4991305;28;20037;-65
2023/09/13 04:19:22;;;;;;;0.10;0.00;;;;;;;19.52;97.59;100595.91;4990741;28;20026;-65
2023/09/13 04:21:47;;;;;;;0.60;0.10;;;;;;;19.54;96.60;100604.44;4991953;28;20054;-65
2023/09/13 04:24:12;;;;;;;0.30;0.20;;;;;;;19.62;96.36;100603.44;4990283;28;20042;-65
2023/09/13 04:26:38;;;;;;;0.68;0.25;;;;;;;19.63;96.17;100595.31;4986353;28;20035;-64
2023/09/13 04:29:05;;;;;;;0.10;0.00;;;;;;;19.63;96.12;100597.97;4990915;28;20046;-65
2023/09/13 04:31:31;;;;;;;0.20;0.10;;;;;;;19.65;96.35;100603.06;4989057;28;20460;-65
2023/09/13 04:33:56;;;;;;;0.22;0.10;;;;;;;19.62;96.58;100608.75;4990678;28;20045;-65
2023/09/13 04:36:23;;;;;;;0.50;0.30;;;;;;;19.61;96.09;100607.09;4990737;28;20034;-65
2023/09/13 04:38:49;;;;;;;0.22;0.00;;;;;;;19.54;95.72;100607.09;4990007;28;20049;-64
2023/09/13 04:41:16;;;;;;;0.05;0.05;;;;;;;19.51;96.32;100602.19;4986644;28;20500;-69
2023/09/13 04:43:42;;;;;;;0.13;0.10;;;;;;;19.50;96.26;100600.53;4984005;28;20092;-69
2023/09/13 04:46:07;;;;;;;0.38;0.00;;;;;;;19.48;96.86;100603.38;4990133;28;20034;-69
2023/09/13 04:48:34;;;;;;;0.10;0.10;;;;;;;19.47;97.24;100603.56;4988626;28;20022;-68
2023/09/13 04:50:59;;;;;;;0.65;0.10;;;;;;;19.46;97.17;100604.59;4990858;28;20077;-69
2023/09/13 04:53:25;;;;;;;0.88;0.17;;;;;;;19.46;96.84;100615.16;4986499;28;20057;-69
2023/09/13 04:55:50;;;;;;;0.68;0.15;;;;;;;19.39;97.58;100609.84;4990964;28;20093;-69
2023/09/13 04:58:16;;;;;;;0.57;0.10;;;;;;;19.38;97.08;100610.03;4989295;28;20036;-69
2023/09/13 05:00:41;;;;;;;0.17;0.08;;;;;;;19.31;97.75;100607.41;4989725;28;20602;-69
2023/09/13 05:03:07;;;;;;;0.35;0.08;;;;;;;19.26;98.39;100603.72;4991841;28;20104;-69
2023/09/13 05:05:32;;;;;;;0.65;0.10;;;;;;;19.16;99.55;100596.16;4993265;28;20125;-69
2023/09/13 05:07:58;;;;;;;0.73;0.00;;;;;;;19.09;100.00;100598.78;4991701;28;20538;-69
2023/09/13 05:10:23;;;;;;;0.10;0.00;;;;;;;19.02;100.00;100597.13;4990123;28;20125;-69
2023/09/13 05:12:49;;;;;;;0.63;0.03;;;;;;;18.96;100.00;100595.25;4987758;28;20484;-69
2023/09/13 05:15:15;;;;;;;0.45;0.10;;;;;;;18.92;100.00;100601.94;4991895;28;20093;-69
2023/09/13 05:17:40;;;;;;;0.20;0.00;;;;;;;18.85;100.00;100597.47;4991031;28;20049;-69
2023/09/13 05:20:06;;;;;;;0.10;0.10;;;;;;;18.84;100.00;100597.66;4990931;28;20039;-69
2023/09/13 05:22:33;;;;;;;0.05;0.00;;;;;;;18.87;100.00;100600.72;4989584;28;20041;-69
2023/09/13 05:25:00;;;;;;;0.10;0.08;;;;;;;18.88;100.00;100594.44;4990986;28;20105;-69
2023/09/13 05:27:26;;;;;;;0.10;0.00;;;;;;;18.93;100.00;100595.66;4986959;28;20080;-69
2023/09/13 05:29:52;;;;;;;0.22;0.10;;;;;;;18.98;99.87;100598.53;4990264;28;20039;-69
2023/09/13 05:32:18;;;;;;;0.10;0.00;;;;;;;19.02;99.69;100602.41;4986359;28;20034;-69
2023/09/13 05:34:45;;;;;;;0.03;0.00;;;;;;;19.11;98.57;100601.22;4989269;28;20057;-69
2023/09/13 05:37:10;;;;;;;0.17;0.08;;;;;;;19.24;98.02;100601.28;4988372;28;20084;-69
2023/09/13 05:39:35;;;;;;;0.22;0.10;;;;;;;19.33;97.40;100605.38;4989827;28;20443;-69
2023/09/13 05:42:02;;;;;;;0.20;0.10;;;;;;;19.40;97.45;100606.19;4989826;28;20130;-69
2023/09/13 05:44:28;;;;;;;0.20;0.00;;;;;;;19.41;98.21;100607.81;4989648;28;20033;-68
2023/09/13 05:46:53;;;;;;;0.00;0.00;;;;;;;19.44;97.73;100610.06;4990033;28;20026;-68
2023/09/13 05:49:19;;;;;;;0.08;0.00;;;;;;;19.50;97.38;100622.50;4987540;28;20088;-69
2023/09/13 05:51:45;;;;;;;0.85;0.22;;;;;;;19.55;97.80;100617.47;4990020;28;20053;-68
2023/09/13 05:54:11;;;;;;;0.10;0.10;;;;;;;19.59;98.17;100619.69;4990739;28;20091;-69
2023/09/13 05:56:39;;;;;;;0.10;0.00;;;;;;;19.65;97.21;100616.28;4987755;28;20559;-68
2023/09/13 05:59:04;;;;;;;0.60;0.10;;;;;;;19.72;96.71;100614.47;4990915;28;20117;-69
2023/09/13 06:01:30;;;;;;;0.30;0.10;;;;;;;19.79;96.38;100615.28;4988812;28;20190;-69
2023/09/13 06:03:55;;;;;;;0.98;0.15;;;;;;;19.82;96.06;100614.88;4986917;28;20049;-69
2023/09/13 06:06:21;;;;;;;0.30;0.20;;;;;;;19.88;96.48;100622.81;4981102;28;20031;-69
2023/09/13 06:08:46;;;;;;;0.15;0.10;;;;;;;19.93;95.54;100624.84;4983799;28;20026;-70
2023/09/13 06:11:11;;;;;;;0.85;0.10;;;;;;;19.98;96.16;100619.78;4984239;28;20046;-69
2023/09/13 06:13:37;;;;;;;0.15;0.10;;;;;;;20.03;95.20;100627.91;4980673;28;20096;-69
2023/09/13 06:16:03;;;;;;;0.17;0.10;;;;;;;20.08;94.96;100624.66;4986282;28;20030;-69
2023/09/13 06:18:28;;;;;;;0.73;0.13;;;;;;;20.13;93.41;100630.97;4987389;28;20026;-69
2023/09/13 06:20:54;;;;;;;0.65;0.30;;;;;;;20.19;93.06;100638.09;4988125;28;20479;-69
2023/09/13 06:23:38;;;;;;;0.30;0.15;;;;;;;20.26;92.18;100635.47;4988690;28;20049;-69
2023/09/13 06:26:04;;;;;;;1.27;0.10;;;;;;;20.38;92.28;100643.59;4985366;28;20041;-69
2023/09/13 06:28:30;;;;;;;0.10;0.10;;;;;;;20.50;92.08;100647.28;4986912;28;20022;-69
2023/09/13 06:30:58;;;;;;;0.93;0.20;;;;;;;20.60;91.80;100639.75;4989770;28;20042;-69
2023/09/13 06:33:24;;;;;;;0.17;0.00;;;;;;;20.63;90.98;100654.41;4986976;28;20469;-69
2023/09/13 06:35:50;;;;;;;0.10;0.00;;;;;;;20.67;90.63;100655.63;4991071;28;20121;-69
2023/09/13 06:38:16;;;;;;;0.10;0.00;;;;;;;20.63;91.09;100660.50;4987998;28;20113;-69
2023/09/13 06:40:47;;;;;;;0.43;0.10;;;;;;;20.64;90.76;100667.44;4985465;28;20030;-69
2023/09/13 06:43:13;;;;;;;0.40;0.08;;;;;;;20.64;90.99;100663.97;4989349;28;20514;-70
2023/09/13 06:45:39;;;;;;;0.20;0.10;;;;;;;20.70;89.91;100655.22;4998318;28;20061;-69
2023/09/13 06:48:04;;;;;;;0.10;0.00;;;;;;;20.71;90.15;100649.72;4989099;28;20054;-69
2023/09/13 06:50:30;;;;;;;0.10;0.03;;;;;;;20.72;90.33;100656.63;4989070;28;20042;-69
2023/09/13 06:52:56;;;;;;;0.20;0.00;;;;;;;20.74;90.86;100656.41;4990486;28;20026;-69
2023/09/13 06:55:21;;;;;;;0.10;0.00;;;;;;;20.74;91.73;100654.59;4989683;28;20057;-69
2023/09/13 06:57:48;;;;;;;0.30;0.00;;;;;;;20.77;91.79;100663.94;4985178;28;20499;-70
2023/09/13 07:00:14;;;;;;;0.30;0.10;;;;;;;20.81;91.35;100668.59;4990297;28;20038;-70
2023/09/13 07:02:40;;;;;;;0.32;0.20;;;;;;;20.81;92.53;100673.09;4990195;28;20112;-69
2023/09/13 07:05:05;;;;;;;0.10;0.00;;;;;;;20.85;91.03;100671.66;4984122;28;20117;-67
2023/09/13 07:07:31;;;;;;;1.08;0.30;;;;;;;20.88;91.15;100677.34;4988258;28;20110;-68
2023/09/13 07:09:56;;;;;;;0.20;0.10;;;;;;;20.94;90.55;100678.38;4987831;28;20034;-68
2023/09/13 07:12:22;;;;;;;0.63;0.00;;;;;;;21.03;90.79;100681.59;4993715;28;20034;-68
2023/09/13 07:14:47;;;;;;;0.10;0.10;;;;;;;21.02;90.52;100675.50;4990087;28;20498;-67
2023/09/13 07:17:17;;;;;;;0.28;0.10;;;;;;;21.05;90.17;100677.72;4988064;28;20042;-67
2023/09/13 07:19:43;;;;;;;0.10;0.00;;;;;;;21.14;91.35;100683.63;4986704;28;20066;-68
2023/09/13 07:22:09;;;;;;;0.55;0.08;;;;;;;21.19;91.78;100686.47;4990653;28;20074;-68
2023/09/13 07:24:34;;;;;;;0.82;0.10;;;;;;;21.28;90.90;100684.41;4989295;28;20042;-68
2023/09/13 07:27:00;;;;;;;0.57;0.10;;;;;;;21.38;89.48;100690.09;4986586;28;20035;-68
2023/09/13 07:29:26;;;;;;;0.45;0.10;;;;;;;21.44;89.69;100684.75;4990124;28;20098;-68
2023/09/13 07:31:51;;;;;;;0.08;0.08;;;;;;;21.50;89.58;100688.41;4996258;28;20046;-68
2023/09/13 07:34:17;;;;;;;1.15;0.10;;;;;;;21.64;90.30;100687.34;4990815;28;20468;-68
2023/09/13 07:36:42;;;;;;;0.10;0.00;;;;;;;21.88;88.65;100690.25;4990963;28;20042;-68
2023/09/13 07:39:09;;;;;;;0.25;0.10;;;;;;;22.10;88.37;100691.59;4992959;28;20110;-68
2023/09/13 07:41:35;;;;;;;0.25;0.10;;;;;;;22.25;88.18;100704.53;4992669;28;20049;-68
2023/09/13 07:44:00;;;;;;;0.43;0.10;;;;;;;22.40;88.28;100705.03;4992172;28;20030;-67
2023/09/13 07:46:26;;;;;;;0.10;0.00;;;;;;;22.49;87.49;100709.03;4987339;28;20022;-69
2023/09/13 07:48:51;;;;;;;0.10;0.00;;;;;;;22.45;86.95;100697.22;4989058;28;20027;-68
2023/09/13 07:51:17;;;;;;;0.63;0.20;;;;;;;22.39;86.70;100709.53;4985794;28;20034;-69
2023/09/13 07:53:42;;;;;;;0.13;0.10;;;;;;;22.35;87.23;100712.81;4989315;28;20107;-69
2023/09/13 07:56:08;;;;;;;0.10;0.10;;;;;;;22.42;87.63;100713.59;4989125;28;20031;-69
2023/09/13 07:58:33;;;;;;;0.00;0.00;;;;;;;22.54;86.79;100714.53;4992760;28;20070;-69
2023/09/13 08:00:58;;;;;;;0.63;0.00;;;;;;;22.62;86.01;100716.91;4991708;28;20030;-69
2023/09/13 08:03:24;;;;;;;0.60;0.10;;;;;;;22.67;85.52;100722.38;4991125;28;20038;-68
2023/09/13 08:05:50;;;;;;;0.22;0.08;;;;;;;22.73;85.31;100721.50;4986701;28;20038;-68
2023/09/13 08:08:22;;;;;;;0.35;0.03;;;;;;;22.83;85.76;100724.50;4988817;28;20395;-68
2023/09/13 08:10:49;;;;;;;0.20;0.10;;;;;;;23.06;84.61;100736.34;4990413;28;21520;-69
2023/09/13 08:13:15;;;;;;;0.10;0.05;;;;;;;23.22;83.98;100735.75;4990069;28;20085;-70
2023/09/13 08:15:41;;;;;;;0.15;0.00;;;;;;;23.29;83.08;100738.34;4988025;28;20124;-70
2023/09/13 08:18:07;;;;;;;0.30;0.10;;;;;;;23.30;82.29;100747.94;4989398;28;20484;-70
2023/09/13 08:20:32;;;;;;;0.30;0.10;;;;;;;23.25;82.42;100748.59;4990486;28;20041;-70
2023/09/13 08:22:58;;;;;;;0.22;0.00;;;;;;;23.31;83.06;100747.72;4989564;28;20042;-70
2023/09/13 08:25:23;;;;;;;0.17;0.03;;;;;;;23.35;81.82;100751.56;4988191;28;20034;-68
2023/09/13 08:27:50;;;;;;;0.75;0.10;;;;;;;23.40;82.15;100756.22;4990125;28;20499;-67
2023/09/13 08:30:16;;;;;;;0.08;0.00;;;;;;;23.44;82.44;100754.75;4987375;28;20579;-68
2023/09/13 08:32:41;;;;;;;0.52;0.10;;;;;;;23.53;81.57;100757.94;4985235;28;20117;-68
2023/09/13 08:35:07;;;;;;;0.10;0.00;;;;;;;23.55;80.47;100754.03;4989113;28;20038;-67
2023/09/13 08:37:32;;;;;;;0.45;0.00;;;;;;;23.49;81.92;100761.03;4985972;28;20106;-68
2023/09/13 08:39:58;;;;;;;0.10;0.00;;;;;;;23.39;81.37;100760.72;4988474;28;20116;-68
2023/09/13 08:42:25;;;;;;;1.17;0.10;;;;;;;23.32;81.24;100759.16;4988732;28;20034;-68
2023/09/13 08:44:52;;;;;;;0.17;0.00;;;;;;;23.30;82.29;100756.72;4990155;28;20041;-68
2023/09/13 08:47:18;;;;;;;0.50;0.08;;;;;;;23.37;82.38;100754.81;4989223;28;20105;-68
2023/09/13 08:49:47;;;;;;;0.20;0.10;;;;;;;23.41;81.64;100755.19;4990052;28;20066;-67
2023/09/13 08:52:14;;;;;;;0.10;0.00;;;;;;;23.43;82.53;100753.94;4987690;28;20045;-68
2023/09/13 08:54:41;;;;;;;0.20;0.00;;;;;;;23.31;81.78;100753.03;4988239;28;20129;-68
2023/09/13 08:57:06;;;;;;;0.10;0.03;;;;;;;23.23;81.89;100748.00;4992292;28;20049;-68
2023/09/13 08:59:32;;;;;;;0.10;0.00;;;;;;;23.20;81.35;100756.44;4992036;28;20116;-68
2023/09/13 09:01:59;;;;;;;0.20;0.10;;;;;;;23.23;82.67;100752.50;4989004;28;20132;-67
2023/09/13 09:04:25;;;;;;;0.35;0.10;;;;;;;23.37;83.82;100754.00;4985997;28;20030;-68
2023/09/13 09:06:51;;;;;;;0.20;0.10;;;;;;;23.57;83.92;100759.16;4992134;28;20036;-68
2023/09/13 09:09:22;;;;;;;0.10;0.00;;;;;;;23.69;84.09;100763.47;4991185;28;20033;-68
2023/09/13 09:11:53;;;;;;;0.32;0.03;;;;;;;23.68;84.11;100766.34;4990957;28;20052;-68
2023/09/13 09:14:21;;;;;;;0.20;0.05;;;;;;;23.65;83.51;100761.47;4991404;28;20034;-68
2023/09/13 09:16:51;;;;;;;0.95;0.10;;;;;;;23.62;83.74;100762.75;4992217;28;20038;-68
2023/09/13 09:19:16;;;;;;;0.30;0.10;;;;;;;23.70;84.94;100774.91;4990020;28;20030;-68
2023/09/13 09:21:42;;;;;;;0.10;0.08;;;;;;;23.77;85.64;100775.66;4991767;28;20060;-68
2023/09/13 09:24:08;;;;;;;0.10;0.10;;;;;;;23.72;85.17;100775.50;4991689;28;20066;-68
2023/09/13 09:26:33;;;;;;;0.10;0.00;;;;;;;23.73;85.26;100774.47;4991148;28;20084;-68
2023/09/13 09:29:13;;;;;;;3.13;0.10;;;;;;;23.75;85.44;100775.88;4987318;28;20396;-68
2023/09/13 09:31:41;;;;;;;0.00;0.00;;;;;;;23.87;85.89;100775.94;4990515;28;20030;-68
2023/09/13 09:34:10;;;;;;;1.38;0.10;;;;;;;23.96;85.54;100774.59;4991432;28;20167;-68
2023/09/13 09:36:43;;;;;;;0.13;0.03;;;;;;;24.02;85.45;100773.69;4990996;28;20104;-68
2023/09/13 09:39:09;;;;;;;0.20;0.00;;;;;;;24.07;85.80;100771.19;4984004;28;20053;-68
2023/09/13 09:41:37;;;;;;;0.30;0.00;;;;;;;24.07;86.13;100775.69;4990803;28;20033;-68
2023/09/13 09:44:03;;;;;;;0.00;0.00;;;;;;;23.96;86.71;100766.63;4991703;28;20391;-68
2023/09/13 09:46:30;;;;;;;0.08;0.00;;;;;;;23.82;87.59;100767.81;4990756;28;20833;-68
2023/09/13 09:48:56;;;;;;;0.10;0.00;;;;;;;23.76;88.59;100779.34;4991520;28;20538;-68
2023/09/13 09:51:22;;;;;;;0.22;0.08;;;;;;;23.74;87.82;100782.22;4990600;28;20050;-68
2023/09/13 09:53:48;;;;;;;0.10;0.00;;;;;;;23.62;86.91;100776.06;4991500;28;20037;-68
2023/09/13 09:56:17;;;;;;;0.20;0.00;;;;;;;23.49;87.98;100771.66;4989890;28;20034;-68
2023/09/13 09:58:45;;;;;;;0.00;0.00;;;;;;;23.47;88.46;100759.63;4985658;28;20432;-68
2023/09/13 10:01:16;;;;;;;1.10;0.43;;;;;;;23.53;87.80;100769.41;4991209;28;20039;-68
2023/09/13 10:03:42;;;;;;;0.20;0.10;;;;;;;23.54;87.11;100765.72;4984473;28;20083;-68
2023/09/13 10:06:15;;;;;;;0.08;0.00;;;;;;;23.64;84.38;100763.31;4991371;28;20095;-68
2023/09/13 10:08:49;;;;;;;0.05;0.00;;;;;;;23.76;82.93;100760.72;4990481;28;20456;-68
2023/09/13 10:11:22;;;;;;;0.10;0.00;;;;;;;23.89;81.19;100747.25;4989920;28;20038;-68
2023/09/13 10:13:48;;;;;;;0.13;0.00;;;;;;;23.86;81.84;100746.91;4991349;28;20038;-68
2023/09/13 10:16:17;;;;;;;0.15;0.00;;;;;;;23.92;82.88;100744.16;5005127;28;20499;-68
2023/09/13 10:18:45;;;;;;;0.10;0.00;;;;;;;23.94;83.34;100749.25;4983714;28;20057;-70
2023/09/13 10:21:14;;;;;;;0.30;0.10;;;;;;;24.01;83.16;100744.66;4991001;28;20034;-69
2023/09/13 10:23:42;;;;;;;0.30;0.10;;;;;;;24.07;82.92;100757.88;4989592;28;20040;-70
2023/09/13 10:26:09;;;;;;;0.10;0.10;;;;;;;24.15;82.84;100756.72;4984302;28;20064;-69
2023/09/13 10:28:41;;;;;;;0.10;0.03;;;;;;;24.20;82.38;100758.69;4985057;28;20023;-69
2023/09/13 10:31:23;;;;;;;0.08;0.00;;;;;;;24.21;80.62;100749.69;4984080;28;20073;-69
2023/09/13 10:33:54;;;;;;;0.08;0.00;;;;;;;24.29;81.84;100755.53;4986829;28;20444;-69
2023/09/13 10:36:26;;;;;;;0.52;0.00;;;;;;;24.38;81.80;100753.34;4986464;28;20034;-69
2023/09/13 10:39:00;;;;;;;0.20;0.10;;;;;;;24.44;80.22;100755.09;4990101;28;20029;-69
2023/09/13 10:41:30;;;;;;;0.45;0.00;;;;;;;24.37;79.35;100749.88;4987393;28;20042;-69
2023/09/13 10:43:57;;;;;;;0.32;0.10;;;;;;;24.29;78.86;100747.53;4990866;28;20033;-71
2023/09/13 10:46:23;;;;;;;0.75;0.10;;;;;;;24.32;79.59;100743.59;4987280;28;20045;-69
2023/09/13 10:48:50;;;;;;;0.10;0.00;;;;;;;24.23;78.30;100751.06;4987553;28;20035;-69
2023/09/13 10:51:17;;;;;;;0.10;0.00;;;;;;;24.18;78.62;100745.63;4985257;28;20030;-68
2023/09/13 10:53:45;;;;;;;0.10;0.00;;;;;;;24.23;78.88;100752.94;4985009;28;20459;-69
2023/09/13 10:56:14;;;;;;;0.32;0.10;;;;;;;24.31;78.71;100745.47;4985844;28;20041;-69
2023/09/13 10:58:44;;;;;;;0.20;0.10;;;;;;;24.36;76.92;100747.44;4990367;28;20498;-69
2023/09/13 11:01:11;;;;;;;0.38;0.10;;;;;;;24.35;77.62;100745.81;4980259;28;20041;-69
2023/09/13 11:03:37;;;;;;;0.20;0.10;;;;;;;24.37;78.34;100744.56;4986805;28;20046;-69
2023/09/13 11:06:03;;;;;;;0.30;0.10;;;;;;;24.38;78.50;100746.16;4988522;28;20042;-69
2023/09/13 11:08:30;;;;;;;0.10;0.00;;;;;;;24.30;77.83;100748.34;4982780;28;20045;-68
2023/09/13 11:10:56;;;;;;;0.85;0.08;;;;;;;24.21;79.57;100747.00;4982817;28;20133;-69
2023/09/13 11:13:40;;;;;;;0.10;0.00;;;;;;;24.07;78.49;100757.88;4983320;28;20448;-69
2023/09/13 11:16:07;;;;;;;0.13;0.00;;;;;;;23.94;79.13;100750.06;4987310;28;20034;-69
2023/09/13 11:18:32;;;;;;;0.10;0.10;;;;;;;23.87;80.00;100752.00;4986776;28;20034;-70
2023/09/13 11:20:58;;;;;;;0.10;0.03;;;;;;;23.83;80.30;100753.47;4987704;28;20571;-69
2023/09/13 11:23:24;;;;;;;1.20;0.20;;;;;;;23.81;80.52;100744.91;4990406;28;20130;-69